FZAA/FIH METAR and TAF weather

Enter ICAO airport designator
Station Type Date Time Source
FZAA METAR 2019/02/23 16:00 UTC NOAA

FZAA 231600Z 34002KT 7000 FEW022 30/23 Q1009 NOSIG


Station Type Date Time Source
FZAA Decoded METAR 2019/02/23 16:00 UTC NOAA

Kinshasa / N'Djili, Congo, Democratic Republic of the (FZAA) 04-23S 015-26E 312M
Feb 23, 2019 - 11:00 AM EST / 2019.02.23 1600 UTC
Wind: from the NNW (340 degrees) at 2 MPH (2 KT):0
Visibility: 4 mile(s):0
Sky conditions: mostly clear
Temperature: 86 F (30 C)
Heat index: 93.4 F (34.1 C):1
Dew Point: 73 F (23 C)
Relative Humidity: 66%
Pressure (altimeter): 29.80 in. Hg (1009 hPa)
ob: FZAA 231600Z 34002KT 7000 FEW022 30/23 Q1009 NOSIG
cycle: 16

Station Type Date Time Source
FZAA TAF 2019/02/23 18:54 UTC NOAA

TAF TAF FZAA 231700Z 2318/2424 27004KT 7000 FEW022
BECMG 2412/2414 32012KT SCT024 FEW030CB PROB30
TEMPO 2415/2419 TS
BECMG 2421/2423 VRB02KT SCT018


Example: see airport list